sensor_id;sensor_type;location;lat;lon;timestamp;P1;durP1;ratioP1;P2;durP2;ratioP2
74650;SDS011;63169;46.042;14.592;2023-06-10T00:02:25;4.18;;;3.53;;
74650;SDS011;63169;46.042;14.592;2023-06-10T00:04:51;3.97;;;2.90;;
74650;SDS011;63169;46.042;14.592;2023-06-10T00:07:17;5.53;;;3.85;;
74650;SDS011;63169;46.042;14.592;2023-06-10T00:09:43;6.60;;;3.05;;
74650;SDS011;63169;46.042;14.592;2023-06-10T00:12:09;3.53;;;3.10;;
74650;SDS011;63169;46.042;14.592;2023-06-10T00:14:36;4.55;;;3.38;;
74650;SDS011;63169;46.042;14.592;2023-06-10T00:17:02;4.38;;;3.55;;
74650;SDS011;63169;46.042;14.592;2023-06-10T00:19:28;4.13;;;3.03;;
74650;SDS011;63169;46.042;14.592;2023-06-10T00:21:57;5.80;;;3.83;;
74650;SDS011;63169;46.042;14.592;2023-06-10T00:24:22;4.25;;;3.10;;
74650;SDS011;63169;46.042;14.592;2023-06-10T00:26:47;4.00;;;3.17;;
74650;SDS011;63169;46.042;14.592;2023-06-10T00:29:13;4.82;;;2.65;;
74650;SDS011;63169;46.042;14.592;2023-06-10T00:31:39;4.20;;;1.67;;
74650;SDS011;63169;46.042;14.592;2023-06-10T00:34:04;4.22;;;3.80;;
74650;SDS011;63169;46.042;14.592;2023-06-10T00:36:30;4.20;;;3.63;;
74650;SDS011;63169;46.042;14.592;2023-06-10T00:38:56;4.15;;;3.05;;
74650;SDS011;63169;46.042;14.592;2023-06-10T00:41:22;4.03;;;1.63;;
74650;SDS011;63169;46.042;14.592;2023-06-10T00:43:47;4.78;;;3.72;;
74650;SDS011;63169;46.042;14.592;2023-06-10T00:46:13;4.63;;;3.78;;
74650;SDS011;63169;46.042;14.592;2023-06-10T00:48:42;4.45;;;3.90;;
74650;SDS011;63169;46.042;14.592;2023-06-10T00:51:07;3.80;;;3.25;;
74650;SDS011;63169;46.042;14.592;2023-06-10T00:53:34;4.95;;;3.80;;
74650;SDS011;63169;46.042;14.592;2023-06-10T00:56:00;5.28;;;3.70;;
74650;SDS011;63169;46.042;14.592;2023-06-10T00:58:26;4.63;;;3.90;;
74650;SDS011;63169;46.042;14.592;2023-06-10T01:00:51;3.90;;;3.22;;
74650;SDS011;63169;46.042;14.592;2023-06-10T01:03:18;4.85;;;2.92;;
74650;SDS011;63169;46.042;14.592;2023-06-10T01:05:44;6.88;;;6.28;;
74650;SDS011;63169;46.042;14.592;2023-06-10T01:11:06;3.97;;;3.35;;
74650;SDS011;63169;46.042;14.592;2023-06-10T01:13:33;5.10;;;1.52;;
74650;SDS011;63169;46.042;14.592;2023-06-10T01:16:01;6.65;;;3.85;;
74650;SDS011;63169;46.042;14.592;2023-06-10T01:18:30;4.28;;;3.88;;
74650;SDS011;63169;46.042;14.592;2023-06-10T01:20:55;4.05;;;3.53;;
74650;SDS011;63169;46.042;14.592;2023-06-10T01:23:21;5.15;;;2.63;;
74650;SDS011;63169;46.042;14.592;2023-06-10T01:26:03;4.30;;;3.83;;
74650;SDS011;63169;46.042;14.592;2023-06-10T01:28:40;5.75;;;3.15;;
74650;SDS011;63169;46.042;14.592;2023-06-10T01:33:59;4.00;;;3.10;;
74650;SDS011;63169;46.042;14.592;2023-06-10T01:38:50;5.00;;;3.73;;
74650;SDS011;63169;46.042;14.592;2023-06-10T01:41:18;4.25;;;1.75;;
74650;SDS011;63169;46.042;14.592;2023-06-10T01:43:44;4.57;;;3.80;;
74650;SDS011;63169;46.042;14.592;2023-06-10T01:46:10;4.15;;;3.75;;
74650;SDS011;63169;46.042;14.592;2023-06-10T01:48:36;4.55;;;4.05;;
74650;SDS011;63169;46.042;14.592;2023-06-10T01:53:28;3.35;;;3.03;;
74650;SDS011;63169;46.042;14.592;2023-06-10T01:55:53;4.40;;;2.63;;
74650;SDS011;63169;46.042;14.592;2023-06-10T01:58:18;5.55;;;3.22;;
74650;SDS011;63169;46.042;14.592;2023-06-10T02:00:44;3.95;;;3.35;;
74650;SDS011;63169;46.042;14.592;2023-06-10T02:03:09;5.05;;;3.80;;
74650;SDS011;63169;46.042;14.592;2023-06-10T02:05:35;5.38;;;3.65;;
74650;SDS011;63169;46.042;14.592;2023-06-10T02:08:00;7.60;;;3.58;;
74650;SDS011;63169;46.042;14.592;2023-06-10T02:10:26;6.53;;;3.25;;
74650;SDS011;63169;46.042;14.592;2023-06-10T02:12:51;4.82;;;3.47;;
74650;SDS011;63169;46.042;14.592;2023-06-10T02:15:17;4.80;;;2.92;;
74650;SDS011;63169;46.042;14.592;2023-06-10T02:17:42;3.30;;;1.48;;
74650;SDS011;63169;46.042;14.592;2023-06-10T02:20:09;4.50;;;4.10;;
74650;SDS011;63169;46.042;14.592;2023-06-10T02:22:36;4.68;;;3.95;;
74650;SDS011;63169;46.042;14.592;2023-06-10T02:25:01;6.93;;;3.50;;
74650;SDS011;63169;46.042;14.592;2023-06-10T02:27:28;5.88;;;3.45;;
74650;SDS011;63169;46.042;14.592;2023-06-10T02:29:55;4.45;;;3.90;;
74650;SDS011;63169;46.042;14.592;2023-06-10T02:32:21;4.85;;;3.60;;
74650;SDS011;63169;46.042;14.592;2023-06-10T02:34:46;4.57;;;3.40;;
74650;SDS011;63169;46.042;14.592;2023-06-10T02:37:13;5.30;;;4.70;;
74650;SDS011;63169;46.042;14.592;2023-06-10T02:39:39;4.35;;;3.60;;
74650;SDS011;63169;46.042;14.592;2023-06-10T02:42:05;5.35;;;4.63;;
74650;SDS011;63169;46.042;14.592;2023-06-10T02:46:56;3.97;;;3.57;;
74650;SDS011;63169;46.042;14.592;2023-06-10T02:49:22;4.78;;;1.77;;
74650;SDS011;63169;46.042;14.592;2023-06-10T02:51:47;5.93;;;3.10;;
74650;SDS011;63169;46.042;14.592;2023-06-10T02:54:12;4.93;;;4.43;;
74650;SDS011;63169;46.042;14.592;2023-06-10T02:56:38;3.85;;;3.50;;
74650;SDS011;63169;46.042;14.592;2023-06-10T02:59:06;4.43;;;3.50;;
74650;SDS011;63169;46.042;14.592;2023-06-10T03:01:33;5.78;;;3.15;;
74650;SDS011;63169;46.042;14.592;2023-06-10T03:04:01;4.38;;;3.17;;
74650;SDS011;63169;46.042;14.592;2023-06-10T03:06:27;4.55;;;2.65;;
74650;SDS011;63169;46.042;14.592;2023-06-10T03:08:53;4.93;;;3.58;;
74650;SDS011;63169;46.042;14.592;2023-06-10T03:11:18;4.75;;;3.80;;
74650;SDS011;63169;46.042;14.592;2023-06-10T03:13:44;4.45;;;2.72;;
74650;SDS011;63169;46.042;14.592;2023-06-10T03:16:10;6.07;;;3.90;;
74650;SDS011;63169;46.042;14.592;2023-06-10T03:18:37;4.10;;;1.98;;
74650;SDS011;63169;46.042;14.592;2023-06-10T03:21:02;3.67;;;1.85;;
74650;SDS011;63169;46.042;14.592;2023-06-10T03:23:28;4.97;;;4.20;;
74650;SDS011;63169;46.042;14.592;2023-06-10T03:25:54;5.88;;;3.75;;
74650;SDS011;63169;46.042;14.592;2023-06-10T03:28:20;4.68;;;4.18;;
74650;SDS011;63169;46.042;14.592;2023-06-10T03:30:46;6.05;;;3.45;;
74650;SDS011;63169;46.042;14.592;2023-06-10T03:35:38;4.85;;;2.83;;
74650;SDS011;63169;46.042;14.592;2023-06-10T03:38:04;5.70;;;4.65;;
74650;SDS011;63169;46.042;14.592;2023-06-10T03:40:30;4.78;;;3.45;;
74650;SDS011;63169;46.042;14.592;2023-06-10T03:42:56;5.97;;;2.00;;
74650;SDS011;63169;46.042;14.592;2023-06-10T03:45:22;5.47;;;3.08;;
74650;SDS011;63169;46.042;14.592;2023-06-10T03:47:47;5.25;;;4.63;;
74650;SDS011;63169;46.042;14.592;2023-06-10T03:50:13;5.90;;;4.45;;
74650;SDS011;63169;46.042;14.592;2023-06-10T03:52:38;4.80;;;3.35;;
74650;SDS011;63169;46.042;14.592;2023-06-10T03:55:04;4.95;;;4.45;;
74650;SDS011;63169;46.042;14.592;2023-06-10T03:59:56;5.85;;;4.32;;
74650;SDS011;63169;46.042;14.592;2023-06-10T04:02:21;6.22;;;4.05;;
74650;SDS011;63169;46.042;14.592;2023-06-10T04:04:47;5.30;;;3.78;;
74650;SDS011;63169;46.042;14.592;2023-06-10T04:07:13;4.35;;;2.25;;
74650;SDS011;63169;46.042;14.592;2023-06-10T04:09:39;5.57;;;3.63;;
74650;SDS011;63169;46.042;14.592;2023-06-10T04:12:04;6.30;;;5.70;;
74650;SDS011;63169;46.042;14.592;2023-06-10T04:14:33;6.57;;;5.05;;
74650;SDS011;63169;46.042;14.592;2023-06-10T04:16:59;4.95;;;3.00;;
74650;SDS011;63169;46.042;14.592;2023-06-10T04:19:24;4.90;;;2.88;;
74650;SDS011;63169;46.042;14.592;2023-06-10T04:21:49;6.85;;;5.10;;
74650;SDS011;63169;46.042;14.592;2023-06-10T04:24:15;8.48;;;5.60;;
74650;SDS011;63169;46.042;14.592;2023-06-10T04:26:40;9.23;;;6.43;;
74650;SDS011;63169;46.042;14.592;2023-06-10T04:29:06;8.13;;;5.63;;
74650;SDS011;63169;46.042;14.592;2023-06-10T04:31:31;9.60;;;5.50;;
74650;SDS011;63169;46.042;14.592;2023-06-10T04:33:57;8.50;;;4.95;;
74650;SDS011;63169;46.042;14.592;2023-06-10T04:36:22;11.32;;;6.93;;
74650;SDS011;63169;46.042;14.592;2023-06-10T04:38:48;9.88;;;7.63;;
74650;SDS011;63169;46.042;14.592;2023-06-10T04:41:14;10.02;;;5.93;;
74650;SDS011;63169;46.042;14.592;2023-06-10T04:43:39;11.05;;;8.00;;
74650;SDS011;63169;46.042;14.592;2023-06-10T04:46:04;9.60;;;6.18;;
74650;SDS011;63169;46.042;14.592;2023-06-10T04:48:30;11.02;;;7.53;;
74650;SDS011;63169;46.042;14.592;2023-06-10T04:50:55;8.63;;;6.30;;
74650;SDS011;63169;46.042;14.592;2023-06-10T04:53:21;10.68;;;6.85;;
74650;SDS011;63169;46.042;14.592;2023-06-10T04:55:47;11.52;;;7.25;;
74650;SDS011;63169;46.042;14.592;2023-06-10T04:58:13;8.27;;;5.13;;
74650;SDS011;63169;46.042;14.592;2023-06-10T05:00:39;9.82;;;6.93;;
74650;SDS011;63169;46.042;14.592;2023-06-10T05:03:04;9.80;;;4.95;;
74650;SDS011;63169;46.042;14.592;2023-06-10T05:05:29;10.52;;;6.57;;
74650;SDS011;63169;46.042;14.592;2023-06-10T05:07:55;7.75;;;5.43;;
74650;SDS011;63169;46.042;14.592;2023-06-10T05:10:20;12.25;;;6.70;;
74650;SDS011;63169;46.042;14.592;2023-06-10T05:12:46;8.00;;;6.07;;
74650;SDS011;63169;46.042;14.592;2023-06-10T05:15:11;11.10;;;9.30;;
74650;SDS011;63169;46.042;14.592;2023-06-10T05:17:36;10.05;;;6.45;;
74650;SDS011;63169;46.042;14.592;2023-06-10T05:20:02;10.25;;;6.07;;
74650;SDS011;63169;46.042;14.592;2023-06-10T05:22:28;9.02;;;6.03;;
74650;SDS011;63169;46.042;14.592;2023-06-10T05:24:53;11.18;;;6.57;;
74650;SDS011;63169;46.042;14.592;2023-06-10T05:27:19;8.77;;;5.45;;
74650;SDS011;63169;46.042;14.592;2023-06-10T05:29:44;11.52;;;6.20;;
74650;SDS011;63169;46.042;14.592;2023-06-10T05:32:10;9.95;;;5.22;;
74650;SDS011;63169;46.042;14.592;2023-06-10T05:34:36;11.82;;;7.38;;
74650;SDS011;63169;46.042;14.592;2023-06-10T05:37:02;12.65;;;7.38;;
74650;SDS011;63169;46.042;14.592;2023-06-10T05:39:27;11.73;;;7.80;;
74650;SDS011;63169;46.042;14.592;2023-06-10T05:41:53;11.65;;;6.88;;
74650;SDS011;63169;46.042;14.592;2023-06-10T05:44:18;12.10;;;8.27;;
74650;SDS011;63169;46.042;14.592;2023-06-10T05:46:43;10.48;;;6.88;;
74650;SDS011;63169;46.042;14.592;2023-06-10T05:49:09;11.35;;;7.70;;
74650;SDS011;63169;46.042;14.592;2023-06-10T05:51:34;10.65;;;7.40;;
74650;SDS011;63169;46.042;14.592;2023-06-10T05:54:01;10.50;;;6.80;;
74650;SDS011;63169;46.042;14.592;2023-06-10T05:58:51;17.27;;;8.40;;
74650;SDS011;63169;46.042;14.592;2023-06-10T06:01:17;9.55;;;7.30;;
74650;SDS011;63169;46.042;14.592;2023-06-10T06:03:42;13.82;;;7.78;;
74650;SDS011;63169;46.042;14.592;2023-06-10T06:06:08;9.88;;;7.97;;
74650;SDS011;63169;46.042;14.592;2023-06-10T06:08:33;10.55;;;6.47;;
74650;SDS011;63169;46.042;14.592;2023-06-10T06:10:58;12.68;;;8.02;;
74650;SDS011;63169;46.042;14.592;2023-06-10T06:13:24;11.43;;;8.63;;
74650;SDS011;63169;46.042;14.592;2023-06-10T06:15:49;11.23;;;8.60;;
74650;SDS011;63169;46.042;14.592;2023-06-10T06:18:15;12.65;;;8.65;;
74650;SDS011;63169;46.042;14.592;2023-06-10T06:20:41;12.57;;;8.65;;
74650;SDS011;63169;46.042;14.592;2023-06-10T06:23:06;14.23;;;9.05;;
74650;SDS011;63169;46.042;14.592;2023-06-10T06:25:33;11.77;;;8.18;;
74650;SDS011;63169;46.042;14.592;2023-06-10T06:28:00;13.98;;;9.00;;
74650;SDS011;63169;46.042;14.592;2023-06-10T06:30:26;30.85;;;17.52;;
74650;SDS011;63169;46.042;14.592;2023-06-10T06:32:51;14.80;;;10.45;;
74650;SDS011;63169;46.042;14.592;2023-06-10T06:35:16;12.35;;;8.25;;
74650;SDS011;63169;46.042;14.592;2023-06-10T06:37:42;21.45;;;12.73;;
74650;SDS011;63169;46.042;14.592;2023-06-10T06:40:07;14.00;;;9.05;;
74650;SDS011;63169;46.042;14.592;2023-06-10T06:42:33;13.02;;;9.25;;
74650;SDS011;63169;46.042;14.592;2023-06-10T06:44:58;15.43;;;9.40;;
74650;SDS011;63169;46.042;14.592;2023-06-10T06:47:24;15.07;;;10.00;;
74650;SDS011;63169;46.042;14.592;2023-06-10T06:49:49;14.48;;;10.35;;
74650;SDS011;63169;46.042;14.592;2023-06-10T06:52:15;15.52;;;10.77;;
74650;SDS011;63169;46.042;14.592;2023-06-10T06:54:41;16.10;;;11.50;;
74650;SDS011;63169;46.042;14.592;2023-06-10T06:57:06;13.43;;;10.43;;
74650;SDS011;63169;46.042;14.592;2023-06-10T06:59:32;11.20;;;7.60;;
74650;SDS011;63169;46.042;14.592;2023-06-10T07:01:58;9.60;;;4.60;;
74650;SDS011;63169;46.042;14.592;2023-06-10T07:04:23;10.55;;;7.57;;
74650;SDS011;63169;46.042;14.592;2023-06-10T07:06:48;9.82;;;4.85;;
74650;SDS011;63169;46.042;14.592;2023-06-10T07:09:14;8.77;;;6.78;;
74650;SDS011;63169;46.042;14.592;2023-06-10T07:11:40;11.07;;;7.43;;
74650;SDS011;63169;46.042;14.592;2023-06-10T07:14:06;9.80;;;5.90;;
74650;SDS011;63169;46.042;14.592;2023-06-10T07:16:32;9.15;;;7.35;;
74650;SDS011;63169;46.042;14.592;2023-06-10T07:18:57;9.20;;;7.40;;
74650;SDS011;63169;46.042;14.592;2023-06-10T07:21:23;9.85;;;7.38;;
74650;SDS011;63169;46.042;14.592;2023-06-10T07:23:48;9.07;;;7.20;;
74650;SDS011;63169;46.042;14.592;2023-06-10T07:26:14;9.80;;;7.93;;
74650;SDS011;63169;46.042;14.592;2023-06-10T07:28:39;11.48;;;8.23;;
74650;SDS011;63169;46.042;14.592;2023-06-10T07:33:31;10.10;;;7.30;;
74650;SDS011;63169;46.042;14.592;2023-06-10T07:35:57;11.85;;;7.55;;
74650;SDS011;63169;46.042;14.592;2023-06-10T07:38:22;13.90;;;7.90;;
74650;SDS011;63169;46.042;14.592;2023-06-10T07:40:47;10.10;;;7.45;;
74650;SDS011;63169;46.042;14.592;2023-06-10T07:43:13;11.70;;;8.07;;
74650;SDS011;63169;46.042;14.592;2023-06-10T07:45:41;8.65;;;4.60;;
74650;SDS011;63169;46.042;14.592;2023-06-10T07:48:06;7.55;;;6.13;;
74650;SDS011;63169;46.042;14.592;2023-06-10T07:50:32;9.02;;;7.80;;
74650;SDS011;63169;46.042;14.592;2023-06-10T07:52:58;8.63;;;5.57;;
74650;SDS011;63169;46.042;14.592;2023-06-10T07:55:23;6.40;;;5.75;;
74650;SDS011;63169;46.042;14.592;2023-06-10T07:57:50;7.68;;;4.70;;
74650;SDS011;63169;46.042;14.592;2023-06-10T08:00:16;6.03;;;3.67;;
74650;SDS011;63169;46.042;14.592;2023-06-10T08:02:42;6.65;;;5.25;;
74650;SDS011;63169;46.042;14.592;2023-06-10T08:07:32;6.32;;;4.05;;
74650;SDS011;63169;46.042;14.592;2023-06-10T08:09:58;4.68;;;3.72;;
74650;SDS011;63169;46.042;14.592;2023-06-10T08:14:48;6.43;;;5.22;;
74650;SDS011;63169;46.042;14.592;2023-06-10T08:17:14;6.07;;;5.47;;
74650;SDS011;63169;46.042;14.592;2023-06-10T08:22:05;8.33;;;4.53;;
74650;SDS011;63169;46.042;14.592;2023-06-10T08:24:30;6.63;;;4.20;;
74650;SDS011;63169;46.042;14.592;2023-06-10T08:29:23;6.35;;;4.78;;
74650;SDS011;63169;46.042;14.592;2023-06-10T08:31:48;6.03;;;4.70;;
74650;SDS011;63169;46.042;14.592;2023-06-10T08:36:39;5.83;;;5.23;;
74650;SDS011;63169;46.042;14.592;2023-06-10T08:41:30;5.90;;;5.40;;
74650;SDS011;63169;46.042;14.592;2023-06-10T08:44:03;10.80;;;5.38;;
74650;SDS011;63169;46.042;14.592;2023-06-10T08:46:33;7.20;;;4.13;;
74650;SDS011;63169;46.042;14.592;2023-06-10T08:49:01;5.55;;;3.28;;
74650;SDS011;63169;46.042;14.592;2023-06-10T08:51:28;5.85;;;4.80;;
74650;SDS011;63169;46.042;14.592;2023-06-10T08:53:58;5.95;;;5.45;;
74650;SDS011;63169;46.042;14.592;2023-06-10T08:56:28;5.32;;;4.60;;
74650;SDS011;63169;46.042;14.592;2023-06-10T09:01:18;5.88;;;5.38;;
74650;SDS011;63169;46.042;14.592;2023-06-10T09:03:44;5.43;;;3.05;;
74650;SDS011;63169;46.042;14.592;2023-06-10T09:06:10;6.68;;;5.93;;
74650;SDS011;63169;46.042;14.592;2023-06-10T09:08:35;5.00;;;4.18;;
74650;SDS011;63169;46.042;14.592;2023-06-10T09:11:01;6.03;;;4.65;;
74650;SDS011;63169;46.042;14.592;2023-06-10T09:13:26;5.20;;;4.80;;
74650;SDS011;63169;46.042;14.592;2023-06-10T09:15:51;6.88;;;6.28;;
74650;SDS011;63169;46.042;14.592;2023-06-10T09:18:17;4.07;;;3.38;;
74650;SDS011;63169;46.042;14.592;2023-06-10T09:20:43;4.93;;;4.15;;
74650;SDS011;63169;46.042;14.592;2023-06-10T09:23:08;9.68;;;5.00;;
74650;SDS011;63169;46.042;14.592;2023-06-10T09:25:35;5.03;;;4.53;;
74650;SDS011;63169;46.042;14.592;2023-06-10T09:28:04;5.38;;;4.75;;
74650;SDS011;63169;46.042;14.592;2023-06-10T09:30:31;4.97;;;2.78;;
74650;SDS011;63169;46.042;14.592;2023-06-10T09:32:59;4.45;;;2.28;;
74650;SDS011;63169;46.042;14.592;2023-06-10T09:35:27;6.43;;;5.82;;
74650;SDS011;63169;46.042;14.592;2023-06-10T09:37:57;5.28;;;4.43;;
74650;SDS011;63169;46.042;14.592;2023-06-10T09:40:24;5.57;;;5.05;;
74650;SDS011;63169;46.042;14.592;2023-06-10T09:42:54;6.32;;;5.72;;
74650;SDS011;63169;46.042;14.592;2023-06-10T09:45:20;9.57;;;5.20;;
74650;SDS011;63169;46.042;14.592;2023-06-10T09:47:47;6.45;;;4.15;;
74650;SDS011;63169;46.042;14.592;2023-06-10T09:50:13;7.78;;;6.10;;
74650;SDS011;63169;46.042;14.592;2023-06-10T09:52:38;5.13;;;4.63;;
74650;SDS011;63169;46.042;14.592;2023-06-10T09:55:04;4.80;;;4.40;;
74650;SDS011;63169;46.042;14.592;2023-06-10T09:57:30;4.25;;;3.75;;
74650;SDS011;63169;46.042;14.592;2023-06-10T10:00:04;6.53;;;5.88;;
74650;SDS011;63169;46.042;14.592;2023-06-10T10:02:48;6.55;;;5.15;;
74650;SDS011;63169;46.042;14.592;2023-06-10T10:05:19;8.82;;;4.82;;
74650;SDS011;63169;46.042;14.592;2023-06-10T10:07:45;5.15;;;4.40;;
74650;SDS011;63169;46.042;14.592;2023-06-10T10:10:11;5.75;;;5.35;;
74650;SDS011;63169;46.042;14.592;2023-06-10T10:12:38;5.22;;;4.72;;
74650;SDS011;63169;46.042;14.592;2023-06-10T10:15:05;6.38;;;5.85;;
74650;SDS011;63169;46.042;14.592;2023-06-10T10:17:33;4.82;;;3.75;;
74650;SDS011;63169;46.042;14.592;2023-06-10T10:20:02;5.10;;;4.63;;
74650;SDS011;63169;46.042;14.592;2023-06-10T10:22:29;5.63;;;5.22;;
74650;SDS011;63169;46.042;14.592;2023-06-10T10:25:02;5.57;;;5.07;;
74650;SDS011;63169;46.042;14.592;2023-06-10T10:27:33;4.45;;;3.83;;
74650;SDS011;63169;46.042;14.592;2023-06-10T10:30:01;13.02;;;5.72;;
74650;SDS011;63169;46.042;14.592;2023-06-10T10:32:32;12.38;;;5.10;;
74650;SDS011;63169;46.042;14.592;2023-06-10T10:37:30;4.50;;;4.00;;
74650;SDS011;63169;46.042;14.592;2023-06-10T10:39:56;4.28;;;3.42;;
74650;SDS011;63169;46.042;14.592;2023-06-10T10:42:22;5.45;;;5.05;;
74650;SDS011;63169;46.042;14.592;2023-06-10T10:44:47;4.30;;;3.90;;
74650;SDS011;63169;46.042;14.592;2023-06-10T10:47:14;4.25;;;3.85;;
74650;SDS011;63169;46.042;14.592;2023-06-10T10:49:40;5.28;;;4.78;;
74650;SDS011;63169;46.042;14.592;2023-06-10T10:52:11;4.18;;;3.78;;
74650;SDS011;63169;46.042;14.592;2023-06-10T10:54:36;4.78;;;4.38;;
74650;SDS011;63169;46.042;14.592;2023-06-10T10:57:14;5.50;;;4.43;;
74650;SDS011;63169;46.042;14.592;2023-06-10T11:05:05;4.75;;;3.97;;
74650;SDS011;63169;46.042;14.592;2023-06-10T11:07:32;4.93;;;4.45;;
74650;SDS011;63169;46.042;14.592;2023-06-10T11:09:59;5.40;;;4.40;;
74650;SDS011;63169;46.042;14.592;2023-06-10T11:12:40;3.17;;;2.10;;
74650;SDS011;63169;46.042;14.592;2023-06-10T11:17:37;5.95;;;4.80;;
74650;SDS011;63169;46.042;14.592;2023-06-10T11:20:02;4.30;;;3.90;;
74650;SDS011;63169;46.042;14.592;2023-06-10T11:22:28;5.03;;;4.63;;
74650;SDS011;63169;46.042;14.592;2023-06-10T11:24:53;5.10;;;4.70;;
74650;SDS011;63169;46.042;14.592;2023-06-10T11:27:22;5.78;;;4.07;;
74650;SDS011;63169;46.042;14.592;2023-06-10T11:32:25;5.18;;;4.68;;
74650;SDS011;63169;46.042;14.592;2023-06-10T11:34:55;6.72;;;5.05;;
74650;SDS011;63169;46.042;14.592;2023-06-10T11:37:21;4.45;;;4.05;;
74650;SDS011;63169;46.042;14.592;2023-06-10T11:39:46;7.25;;;4.10;;
74650;SDS011;63169;46.042;14.592;2023-06-10T11:42:12;4.55;;;4.10;;
74650;SDS011;63169;46.042;14.592;2023-06-10T11:44:37;4.85;;;4.40;;
74650;SDS011;63169;46.042;14.592;2023-06-10T11:47:03;5.43;;;4.43;;
74650;SDS011;63169;46.042;14.592;2023-06-10T11:49:29;3.63;;;2.40;;
74650;SDS011;63169;46.042;14.592;2023-06-10T11:51:54;4.85;;;4.13;;
74650;SDS011;63169;46.042;14.592;2023-06-10T11:54:20;5.57;;;5.05;;
74650;SDS011;63169;46.042;14.592;2023-06-10T11:56:46;5.68;;;5.13;;
74650;SDS011;63169;46.042;14.592;2023-06-10T11:59:12;5.80;;;5.28;;
74650;SDS011;63169;46.042;14.592;2023-06-10T12:01:41;5.95;;;5.35;;
74650;SDS011;63169;46.042;14.592;2023-06-10T12:04:09;6.95;;;6.35;;
74650;SDS011;63169;46.042;14.592;2023-06-10T12:09:05;6.95;;;6.35;;
74650;SDS011;63169;46.042;14.592;2023-06-10T12:11:31;5.32;;;3.45;;
74650;SDS011;63169;46.042;14.592;2023-06-10T12:13:57;6.60;;;5.65;;
74650;SDS011;63169;46.042;14.592;2023-06-10T12:16:23;5.90;;;5.30;;
74650;SDS011;63169;46.042;14.592;2023-06-10T12:18:49;9.40;;;5.90;;
74650;SDS011;63169;46.042;14.592;2023-06-10T12:21:24;6.72;;;5.90;;
74650;SDS011;63169;46.042;14.592;2023-06-10T12:24:06;5.85;;;5.35;;
74650;SDS011;63169;46.042;14.592;2023-06-10T12:26:37;5.57;;;4.85;;
74650;SDS011;63169;46.042;14.592;2023-06-10T12:37:00;5.50;;;5.00;;
74650;SDS011;63169;46.042;14.592;2023-06-10T12:39:26;6.10;;;5.60;;
74650;SDS011;63169;46.042;14.592;2023-06-10T12:41:51;5.85;;;5.25;;
74650;SDS011;63169;46.042;14.592;2023-06-10T12:44:17;6.03;;;5.22;;
74650;SDS011;63169;46.042;14.592;2023-06-10T12:46:42;6.20;;;5.28;;
74650;SDS011;63169;46.042;14.592;2023-06-10T12:49:08;9.23;;;6.72;;
74650;SDS011;63169;46.042;14.592;2023-06-10T12:51:34;6.88;;;6.18;;
74650;SDS011;63169;46.042;14.592;2023-06-10T12:54:00;5.78;;;5.18;;
74650;SDS011;63169;46.042;14.592;2023-06-10T12:56:25;5.15;;;3.70;;
74650;SDS011;63169;46.042;14.592;2023-06-10T12:58:51;8.07;;;6.18;;
74650;SDS011;63169;46.042;14.592;2023-06-10T13:01:16;6.38;;;5.22;;
74650;SDS011;63169;46.042;14.592;2023-06-10T13:03:42;5.90;;;5.35;;
74650;SDS011;63169;46.042;14.592;2023-06-10T13:06:07;5.65;;;3.55;;
74650;SDS011;63169;46.042;14.592;2023-06-10T13:08:32;5.50;;;3.67;;
74650;SDS011;63169;46.042;14.592;2023-06-10T13:10:58;5.47;;;4.97;;
74650;SDS011;63169;46.042;14.592;2023-06-10T13:13:24;6.63;;;5.78;;
74650;SDS011;63169;46.042;14.592;2023-06-10T13:15:50;6.07;;;3.65;;
74650;SDS011;63169;46.042;14.592;2023-06-10T13:18:16;7.15;;;6.38;;
74650;SDS011;63169;46.042;14.592;2023-06-10T13:20:44;5.95;;;5.18;;
74650;SDS011;63169;46.042;14.592;2023-06-10T13:23:09;6.45;;;5.63;;
74650;SDS011;63169;46.042;14.592;2023-06-10T13:25:35;5.93;;;5.32;;
74650;SDS011;63169;46.042;14.592;2023-06-10T13:28:00;6.75;;;5.30;;
74650;SDS011;63169;46.042;14.592;2023-06-10T13:30:26;5.28;;;3.60;;
74650;SDS011;63169;46.042;14.592;2023-06-10T13:32:51;5.05;;;2.97;;
74650;SDS011;63169;46.042;14.592;2023-06-10T13:35:16;5.38;;;4.88;;
74650;SDS011;63169;46.042;14.592;2023-06-10T13:37:42;6.93;;;6.25;;
74650;SDS011;63169;46.042;14.592;2023-06-10T13:40:07;5.22;;;3.75;;
74650;SDS011;63169;46.042;14.592;2023-06-10T13:42:34;6.00;;;5.50;;
74650;SDS011;63169;46.042;14.592;2023-06-10T13:45:00;6.20;;;5.60;;
74650;SDS011;63169;46.042;14.592;2023-06-10T13:47:26;6.90;;;5.90;;
74650;SDS011;63169;46.042;14.592;2023-06-10T13:49:51;7.13;;;6.40;;
74650;SDS011;63169;46.042;14.592;2023-06-10T13:52:17;6.35;;;5.47;;
74650;SDS011;63169;46.042;14.592;2023-06-10T13:54:42;7.00;;;4.88;;
74650;SDS011;63169;46.042;14.592;2023-06-10T13:57:08;6.18;;;5.68;;
74650;SDS011;63169;46.042;14.592;2023-06-10T13:59:35;6.57;;;5.97;;
74650;SDS011;63169;46.042;14.592;2023-06-10T14:02:00;3.88;;;2.90;;
74650;SDS011;63169;46.042;14.592;2023-06-10T14:04:26;6.30;;;5.70;;
74650;SDS011;63169;46.042;14.592;2023-06-10T14:06:52;6.28;;;5.68;;
74650;SDS011;63169;46.042;14.592;2023-06-10T14:09:17;5.63;;;5.13;;
74650;SDS011;63169;46.042;14.592;2023-06-10T14:11:42;5.63;;;5.13;;
74650;SDS011;63169;46.042;14.592;2023-06-10T14:14:08;6.60;;;6.00;;
74650;SDS011;63169;46.042;14.592;2023-06-10T14:16:35;7.07;;;6.45;;
74650;SDS011;63169;46.042;14.592;2023-06-10T14:19:00;5.60;;;5.10;;
74650;SDS011;63169;46.042;14.592;2023-06-10T14:21:25;5.53;;;5.00;;
74650;SDS011;63169;46.042;14.592;2023-06-10T14:23:51;6.20;;;4.80;;
74650;SDS011;63169;46.042;14.592;2023-06-10T14:26:18;5.90;;;5.30;;
74650;SDS011;63169;46.042;14.592;2023-06-10T14:28:43;7.40;;;5.47;;
74650;SDS011;63169;46.042;14.592;2023-06-10T14:31:09;6.43;;;5.43;;
74650;SDS011;63169;46.042;14.592;2023-06-10T14:33:35;7.50;;;6.80;;
74650;SDS011;63169;46.042;14.592;2023-06-10T14:36:00;6.20;;;5.28;;
74650;SDS011;63169;46.042;14.592;2023-06-10T14:38:26;5.97;;;4.97;;
74650;SDS011;63169;46.042;14.592;2023-06-10T14:40:51;5.80;;;5.15;;
74650;SDS011;63169;46.042;14.592;2023-06-10T14:43:17;4.85;;;2.97;;
74650;SDS011;63169;46.042;14.592;2023-06-10T14:45:43;6.45;;;5.85;;
74650;SDS011;63169;46.042;14.592;2023-06-10T14:48:10;10.00;;;7.20;;
74650;SDS011;63169;46.042;14.592;2023-06-10T14:53:00;5.07;;;3.05;;
74650;SDS011;63169;46.042;14.592;2023-06-10T14:55:26;5.53;;;3.40;;
74650;SDS011;63169;46.042;14.592;2023-06-10T14:57:52;6.25;;;5.65;;
74650;SDS011;63169;46.042;14.592;2023-06-10T15:00:17;6.28;;;5.38;;
74650;SDS011;63169;46.042;14.592;2023-06-10T15:02:47;7.07;;;6.28;;
74650;SDS011;63169;46.042;14.592;2023-06-10T15:07:40;7.05;;;6.45;;
74650;SDS011;63169;46.042;14.592;2023-06-10T15:12:31;5.97;;;4.95;;
74650;SDS011;63169;46.042;14.592;2023-06-10T15:14:56;5.78;;;5.18;;
74650;SDS011;63169;46.042;14.592;2023-06-10T15:17:22;5.80;;;4.88;;
74650;SDS011;63169;46.042;14.592;2023-06-10T15:19:47;6.85;;;6.25;;
74650;SDS011;63169;46.042;14.592;2023-06-10T15:22:12;5.53;;;3.38;;
74650;SDS011;63169;46.042;14.592;2023-06-10T15:24:38;6.78;;;5.05;;
74650;SDS011;63169;46.042;14.592;2023-06-10T15:27:04;4.20;;;3.15;;
74650;SDS011;63169;46.042;14.592;2023-06-10T15:29:30;5.43;;;4.93;;
74650;SDS011;63169;46.042;14.592;2023-06-10T15:34:21;6.53;;;5.67;;
74650;SDS011;63169;46.042;14.592;2023-06-10T15:39:11;5.80;;;5.30;;
74650;SDS011;63169;46.042;14.592;2023-06-10T15:44:02;5.97;;;4.38;;